Time;durP1;ratioP1;P1;durP2;ratioP2;P2;SDS_P1;SDS_P2;PMS_P1;PMS_P2;Temp;Humidity;BMP_temperature;BMP_pressure;BME280_temperature;BME280_humidity;BME280_pressure;Samples;Min_cycle;Max_cycle;Signal;HPM_P1;HPM_P2
2021/10/06 00:00:38;;;;;;;0.37;0.37;;;12.40;99.90;;;;;;6237773;23;20165;-89
2021/10/06 00:03:04;;;;;;;1.70;0.60;;;12.40;99.90;;;;;;6211759;23;20254;-89
2021/10/06 00:05:30;;;;;;;4.93;0.80;;;12.30;99.90;;;;;;6212268;23;20197;-89
2021/10/06 00:07:56;;;;;;;12.80;0.60;;;12.30;99.90;;;;;;6187171;23;20209;-88
2021/10/06 00:10:22;;;;;;;2.37;0.40;;;12.40;99.90;;;;;;6187158;22;20166;-90
2021/10/06 00:12:48;;;;;;;1.50;0.60;;;12.40;99.90;;;;;;6212829;23;20189;-88
2021/10/06 00:15:14;;;;;;;2.20;0.60;;;12.30;99.90;;;;;;6187216;23;20450;-89
2021/10/06 00:17:41;;;;;;;0.73;0.73;;;12.30;99.90;;;;;;6237415;22;20193;-89
2021/10/06 00:20:09;;;;;;;1.27;0.67;;;12.30;99.90;;;;;;6212351;23;20185;-89
2021/10/06 00:22:35;;;;;;;0.53;0.53;;;12.20;99.90;;;;;;6212395;22;20737;-89
2021/10/06 00:25:01;;;;;;;0.80;0.60;;;12.10;99.90;;;;;;6187803;23;20164;-89
2021/10/06 00:27:27;;;;;;;5.10;0.77;;;12.10;99.90;;;;;;6211849;23;20209;-89
2021/10/06 00:29:52;;;;;;;1.90;1.07;;;12.10;99.90;;;;;;6187444;23;20204;-89
2021/10/06 00:32:18;;;;;;;2.07;1.57;;;12.00;99.90;;;;;;6212137;23;20276;-89
2021/10/06 00:34:44;;;;;;;1.53;1.03;;;12.00;99.90;;;;;;6187387;23;20272;-89
2021/10/06 00:37:09;;;;;;;1.47;0.77;;;12.00;99.90;;;;;;6212876;23;20204;-88
2021/10/06 00:39:36;;;;;;;16.10;1.00;;;12.00;99.90;;;;;;6212126;23;20243;-89
2021/10/06 00:42:02;;;;;;;1.53;0.83;;;11.90;99.90;;;;;;6187218;23;20197;-88
2021/10/06 00:44:34;;;;;;;2.43;0.70;;;12.00;99.90;;;;;;6187032;23;20197;-88
2021/10/06 00:47:00;;;;;;;2.73;0.70;;;12.00;99.90;;;;;;6237402;22;20642;-88
2021/10/06 00:49:26;;;;;;;0.87;0.50;;;12.00;99.90;;;;;;6237311;22;20485;-88
2021/10/06 00:51:51;;;;;;;2.37;1.30;;;12.00;99.90;;;;;;6237964;23;20153;-88
2021/10/06 00:54:17;;;;;;;0.57;0.57;;;12.10;99.90;;;;;;6187487;23;20816;-88
2021/10/06 00:56:43;;;;;;;0.77;0.77;;;12.10;99.90;;;;;;6186483;23;20240;-89
2021/10/06 00:59:09;;;;;;;0.47;0.47;;;12.10;99.90;;;;;;6237791;22;20272;-88
2021/10/06 01:01:34;;;;;;;0.40;0.40;;;12.10;99.90;;;;;;6212287;22;20582;-88
2021/10/06 01:04:04;;;;;;;1.00;0.90;;;12.10;99.90;;;;;;6187758;23;20215;-88
2021/10/06 01:06:31;;;;;;;4.43;0.60;;;12.10;99.90;;;;;;6238563;22;20324;-88
2021/10/06 01:09:00;;;;;;;1.03;0.97;;;12.10;99.90;;;;;;6186783;23;20216;-87
2021/10/06 01:11:27;;;;;;;0.70;0.70;;;12.20;99.90;;;;;;6237224;22;21098;-88
2021/10/06 01:13:54;;;;;;;0.77;0.57;;;12.20;99.90;;;;;;6186954;23;20589;-88
2021/10/06 01:16:21;;;;;;;2.07;0.70;;;12.20;99.90;;;;;;6212001;22;20295;-88
2021/10/06 01:18:47;;;;;;;1.00;0.90;;;12.20;99.90;;;;;;6238332;23;20154;-89
2021/10/06 01:21:18;;;;;;;5.23;0.67;;;12.20;99.90;;;;;;6187100;23;20200;-89
2021/10/06 01:23:46;;;;;;;2.93;0.67;;;12.20;99.90;;;;;;6212359;23;20685;-88
2021/10/06 01:26:18;;;;;;;0.60;0.60;;;12.10;99.90;;;;;;6238221;22;20208;-88
2021/10/06 01:28:45;;;;;;;0.60;0.23;;;12.10;99.90;;;;;;6213459;23;20201;-89
2021/10/06 01:31:12;;;;;;;1.50;0.43;;;12.10;99.90;;;;;;6188332;23;20165;-88
2021/10/06 01:33:38;;;;;;;0.50;0.40;;;12.00;99.90;;;;;;6239703;23;21004;-89
2021/10/06 01:36:04;;;;;;;3.33;1.10;;;12.00;99.90;;;;;;6189074;23;20344;-89
2021/10/06 01:38:29;;;;;;;1.63;0.60;;;12.00;99.90;;;;;;6213317;23;20250;-89
2021/10/06 01:40:55;;;;;;;1.47;1.37;;;12.00;99.90;;;;;;6213766;23;20258;-88
2021/10/06 01:43:21;;;;;;;0.93;0.70;;;12.00;99.90;;;;;;6189174;22;20166;-89
2021/10/06 01:45:46;;;;;;;0.97;0.80;;;11.90;99.90;;;;;;6189682;23;20239;-89
2021/10/06 01:48:14;;;;;;;0.67;0.43;;;11.90;99.90;;;;;;6213817;23;20288;-88
2021/10/06 01:50:42;;;;;;;1.00;0.70;;;11.90;99.90;;;;;;6214165;23;20203;-89
2021/10/06 01:53:09;;;;;;;1.40;0.73;;;11.80;99.90;;;;;;6213547;23;20661;-88
2021/10/06 01:55:35;;;;;;;3.37;1.47;;;11.80;99.90;;;;;;6239471;22;21066;-89
2021/10/06 01:58:09;;;;;;;0.63;0.60;;;11.80;99.90;;;;;;6214190;23;20252;-88
2021/10/06 02:00:36;;;;;;;1.57;0.63;;;11.70;99.90;;;;;;6238676;22;20646;-89
2021/10/06 02:03:02;;;;;;;5.70;1.23;;;11.80;99.90;;;;;;6238622;22;20193;-89
2021/10/06 02:05:28;;;;;;;1.17;1.00;;;11.80;99.90;;;;;;6188648;23;20219;-89
2021/10/06 02:07:54;;;;;;;0.60;0.60;;;11.80;99.90;;;;;;6238684;22;20216;-89
2021/10/06 02:10:21;;;;;;;2.10;1.40;;;11.80;99.90;;;;;;6213420;22;20610;-89
2021/10/06 02:12:46;;;;;;;2.13;0.57;;;11.80;99.90;;;;;;6214130;23;20173;-88
2021/10/06 02:15:12;;;;;;;2.73;0.90;;;11.70;99.90;;;;;;6188247;23;20197;-88
2021/10/06 02:17:38;;;;;;;1.67;0.90;;;11.70;99.90;;;;;;6213459;23;20242;-88
2021/10/06 02:20:05;;;;;;;1.70;1.17;;;11.70;99.90;;;;;;6213065;23;20197;-89
2021/10/06 02:22:31;;;;;;;1.93;1.03;;;11.80;99.90;;;;;;6213713;22;20485;-89
2021/10/06 02:24:57;;;;;;;2.13;1.50;;;11.70;99.90;;;;;;6239064;23;20154;-89
2021/10/06 02:27:23;;;;;;;2.07;1.57;;;11.70;99.90;;;;;;6238585;22;20217;-88
2021/10/06 02:29:48;;;;;;;6.83;1.10;;;11.80;99.90;;;;;;6187866;23;20193;-88
2021/10/06 02:32:14;;;;;;;3.37;1.07;;;11.70;99.90;;;;;;6188119;23;20189;-88
2021/10/06 02:34:40;;;;;;;3.10;1.37;;;11.70;99.90;;;;;;6213378;23;20193;-89
2021/10/06 02:37:06;;;;;;;1.50;1.20;;;11.70;99.90;;;;;;6213405;23;20666;-88
2021/10/06 02:39:31;;;;;;;1.90;1.67;;;11.60;99.90;;;;;;6187726;23;20271;-88
2021/10/06 02:41:57;;;;;;;2.83;1.60;;;11.50;99.90;;;;;;6211919;23;20270;-88
2021/10/06 02:44:23;;;;;;;5.93;1.20;;;11.50;99.90;;;;;;6188511;23;20197;-89
2021/10/06 02:46:49;;;;;;;3.80;1.13;;;11.40;99.90;;;;;;6212843;23;20220;-88
2021/10/06 02:49:14;;;;;;;3.80;1.60;;;11.30;99.90;;;;;;6187672;22;20201;-88
2021/10/06 02:51:40;;;;;;;2.10;1.53;;;11.30;99.90;;;;;;6213346;23;20190;-88
2021/10/06 02:54:06;;;;;;;2.20;1.80;;;11.30;99.90;;;;;;6212651;23;20205;-88
2021/10/06 02:56:32;;;;;;;2.40;1.80;;;11.40;99.90;;;;;;6213106;23;20200;-88
2021/10/06 02:58:57;;;;;;;2.93;1.30;;;11.30;99.90;;;;;;6238045;22;20197;-89
2021/10/06 03:01:23;;;;;;;6.43;2.30;;;11.40;99.90;;;;;;6212965;22;20613;-89
2021/10/06 03:03:49;;;;;;;1.17;1.07;;;11.40;99.90;;;;;;6188919;23;20240;-88
2021/10/06 03:06:14;;;;;;;2.27;1.20;;;11.40;99.90;;;;;;6187803;23;20973;-88
2021/10/06 03:08:40;;;;;;;4.20;2.03;;;11.50;99.90;;;;;;6187982;23;20308;-88
2021/10/06 03:11:06;;;;;;;3.13;1.70;;;11.50;99.90;;;;;;6212672;23;20193;-89
2021/10/06 03:13:32;;;;;;;2.50;1.20;;;11.50;99.90;;;;;;6237976;22;20166;-89
2021/10/06 03:15:59;;;;;;;1.63;1.37;;;11.60;99.90;;;;;;6188351;23;20248;-88
2021/10/06 03:18:26;;;;;;;5.10;2.00;;;11.60;99.90;;;;;;6237924;22;20212;-89
2021/10/06 03:20:53;;;;;;;1.63;1.30;;;11.60;99.90;;;;;;6212635;23;20200;-88
2021/10/06 03:23:19;;;;;;;2.30;1.57;;;11.60;99.90;;;;;;6237314;22;20673;-88
2021/10/06 03:25:45;;;;;;;8.73;2.10;;;11.50;99.90;;;;;;6212035;23;20193;-88
2021/10/06 03:28:11;;;;;;;2.80;1.97;;;11.50;99.90;;;;;;6238418;23;20300;-88
2021/10/06 03:30:37;;;;;;;5.10;2.33;;;11.50;99.90;;;;;;6213033;22;20824;-88
2021/10/06 03:33:03;;;;;;;5.50;1.73;;;11.40;99.90;;;;;;6237750;22;20662;-89
2021/10/06 03:35:29;;;;;;;1.00;0.60;;;11.40;99.90;;;;;;6237811;22;20204;-88
2021/10/06 03:37:55;;;;;;;1.20;1.00;;;11.30;99.90;;;;;;6187708;23;20208;-88
2021/10/06 03:40:22;;;;;;;0.93;0.93;;;11.20;99.90;;;;;;6187706;22;20287;-89
2021/10/06 03:42:48;;;;;;;0.90;0.70;;;11.20;99.90;;;;;;6238330;23;20145;-89
2021/10/06 03:45:14;;;;;;;2.70;1.00;;;11.10;99.90;;;;;;6237590;22;20211;-89
2021/10/06 03:47:41;;;;;;;4.20;1.07;;;11.10;99.90;;;;;;6187472;23;20519;-89
2021/10/06 03:50:08;;;;;;;0.23;0.23;;;11.00;99.90;;;;;;6237784;22;20497;-88
2021/10/06 03:52:34;;;;;;;1.00;0.90;;;11.00;99.90;;;;;;6187521;22;20197;-89
2021/10/06 03:55:00;;;;;;;0.40;0.40;;;11.00;99.90;;;;;;6187567;23;20161;-89
2021/10/06 03:57:26;;;;;;;0.53;0.50;;;11.00;99.90;;;;;;6212039;23;20197;-88
2021/10/06 03:59:51;;;;;;;0.47;0.47;;;10.90;99.90;;;;;;6211694;23;20256;-89
2021/10/06 04:02:17;;;;;;;0.60;0.60;;;10.90;99.90;;;;;;6237068;22;20197;-88
2021/10/06 04:04:43;;;;;;;0.30;0.30;;;10.90;99.90;;;;;;6212190;23;20204;-88
2021/10/06 04:07:09;;;;;;;1.17;0.67;;;10.80;99.90;;;;;;6237490;23;20272;-88
2021/10/06 04:09:34;;;;;;;2.30;0.60;;;10.80;99.90;;;;;;6187021;23;20220;-88
2021/10/06 04:12:00;;;;;;;3.10;0.70;;;10.80;99.90;;;;;;6186593;23;20220;-88
2021/10/06 04:14:26;;;;;;;0.53;0.53;;;10.80;99.90;;;;;;6212423;23;20308;-88
2021/10/06 04:16:52;;;;;;;3.20;1.03;;;10.80;99.90;;;;;;6187208;23;20189;-88
2021/10/06 04:19:17;;;;;;;0.30;0.30;;;10.80;99.90;;;;;;6187428;22;20161;-88
2021/10/06 04:21:43;;;;;;;0.43;0.43;;;10.80;99.90;;;;;;6187926;23;20170;-88
2021/10/06 04:24:09;;;;;;;2.10;0.50;;;10.80;99.90;;;;;;6212121;23;20201;-89
2021/10/06 04:26:34;;;;;;;4.43;0.63;;;10.80;99.90;;;;;;6212146;23;20193;-89
2021/10/06 04:29:00;;;;;;;0.30;0.30;;;10.80;99.90;;;;;;6237425;22;20498;-88
2021/10/06 04:31:26;;;;;;;0.30;0.30;;;10.80;99.90;;;;;;6212217;22;20252;-89
2021/10/06 04:33:52;;;;;;;1.50;0.30;;;10.80;99.90;;;;;;6188082;23;20165;-88
2021/10/06 04:36:18;;;;;;;0.73;0.50;;;10.80;99.90;;;;;;6187038;23;20228;-89
2021/10/06 04:38:44;;;;;;;0.33;0.20;;;10.80;99.90;;;;;;6212099;23;20220;-88
2021/10/06 04:41:10;;;;;;;0.23;0.23;;;10.80;99.90;;;;;;6186864;23;20215;-88
2021/10/06 04:43:36;;;;;;;4.40;0.40;;;10.80;99.90;;;;;;6237118;22;20197;-90
2021/10/06 04:46:02;;;;;;;0.20;0.20;;;10.90;99.90;;;;;;6212801;23;20161;-89
2021/10/06 04:48:28;;;;;;;1.80;0.47;;;10.90;99.90;;;;;;6186819;23;20513;-88
2021/10/06 04:50:53;;;;;;;0.90;0.90;;;10.90;99.90;;;;;;6186927;23;20220;-88
2021/10/06 04:53:19;;;;;;;0.40;0.40;;;10.90;99.90;;;;;;6210034;23;20702;-88
2021/10/06 04:55:45;;;;;;;0.20;0.20;;;10.90;99.90;;;;;;6186594;23;20216;-90
2021/10/06 04:58:11;;;;;;;0.70;0.43;;;10.90;99.90;;;;;;6212256;23;20187;-89
2021/10/06 05:00:37;;;;;;;3.40;0.30;;;11.00;99.90;;;;;;6187348;23;20244;-89
2021/10/06 05:03:13;;;;;;;4.23;0.60;;;10.90;99.90;;;;;;6211495;23;20204;-87
2021/10/06 05:05:41;;;;;;;2.73;0.50;;;10.90;99.90;;;;;;6212253;23;20787;-86
2021/10/06 05:08:08;;;;;;;3.13;0.93;;;10.90;99.90;;;;;;6238326;22;20201;-86
2021/10/06 05:10:34;;;;;;;0.13;0.10;;;11.00;99.90;;;;;;6213874;22;20514;-89
2021/10/06 05:13:00;;;;;;;1.87;0.50;;;11.00;99.90;;;;;;6213857;23;20168;-86
2021/10/06 05:15:27;;;;;;;0.70;0.70;;;11.10;99.90;;;;;;6211343;23;20205;-85
2021/10/06 05:17:53;;;;;;;0.70;0.70;;;11.10;99.90;;;;;;6238406;22;20198;-87
2021/10/06 05:20:19;;;;;;;0.60;0.50;;;11.10;99.90;;;;;;6186924;23;20224;-86
2021/10/06 05:22:44;;;;;;;1.07;0.37;;;11.10;99.90;;;;;;6188386;23;20189;-87
2021/10/06 05:25:10;;;;;;;0.57;0.53;;;11.10;99.90;;;;;;6188680;23;20646;-85
2021/10/06 05:27:36;;;;;;;0.83;0.50;;;11.10;99.90;;;;;;6212719;23;20817;-86
2021/10/06 05:30:05;;;;;;;0.20;0.20;;;11.10;99.90;;;;;;6212934;23;20204;-86
2021/10/06 05:32:31;;;;;;;0.60;0.60;;;11.10;99.90;;;;;;6237738;22;20567;-85
2021/10/06 05:34:57;;;;;;;2.00;0.80;;;11.10;99.90;;;;;;6212799;23;20199;-87
2021/10/06 05:37:23;;;;;;;0.80;0.70;;;11.10;99.90;;;;;;6187423;22;20176;-87
2021/10/06 05:39:49;;;;;;;1.00;0.90;;;11.10;99.90;;;;;;6189356;23;20248;-87
2021/10/06 05:42:15;;;;;;;0.67;0.67;;;11.10;99.90;;;;;;6211719;23;20197;-87
2021/10/06 05:44:41;;;;;;;1.17;0.90;;;11.10;99.90;;;;;;6213337;23;20619;-87
2021/10/06 05:47:07;;;;;;;4.03;1.23;;;11.10;99.90;;;;;;6213127;23;20193;-87
2021/10/06 05:49:32;;;;;;;0.37;0.37;;;11.10;99.90;;;;;;6187684;22;20241;-87
2021/10/06 05:51:58;;;;;;;1.80;0.47;;;11.10;99.90;;;;;;6188472;23;20237;-86
2021/10/06 05:54:24;;;;;;;1.70;0.60;;;11.10;99.90;;;;;;6188236;23;20205;-90
2021/10/06 05:56:50;;;;;;;1.23;0.80;;;11.10;99.90;;;;;;6188224;23;20288;-87
2021/10/06 05:59:15;;;;;;;3.47;0.97;;;11.20;99.90;;;;;;6188074;23;20254;-87
2021/10/06 06:01:41;;;;;;;3.20;1.10;;;11.20;99.90;;;;;;6187904;23;20197;-87
2021/10/06 06:04:07;;;;;;;1.00;1.00;;;11.20;99.90;;;;;;6213500;23;20172;-88
2021/10/06 06:06:32;;;;;;;0.63;0.63;;;11.20;99.90;;;;;;6187423;23;20266;-88
2021/10/06 06:08:58;;;;;;;1.30;0.70;;;11.20;99.90;;;;;;6237647;22;20580;-87
2021/10/06 06:11:26;;;;;;;1.53;1.40;;;11.20;99.90;;;;;;6212517;23;20646;-86
2021/10/06 06:13:52;;;;;;;0.73;0.47;;;11.20;99.90;;;;;;6237709;22;20204;-87
2021/10/06 06:16:19;;;;;;;0.93;0.70;;;11.20;99.90;;;;;;6237403;22;20186;-87
2021/10/06 06:18:45;;;;;;;2.17;0.60;;;11.20;99.90;;;;;;6238524;23;20161;-87
2021/10/06 06:21:11;;;;;;;3.03;1.13;;;11.20;99.90;;;;;;6212840;23;20207;-87
2021/10/06 06:23:37;;;;;;;0.53;0.53;;;11.20;99.90;;;;;;6212623;23;20197;-89
2021/10/06 06:26:03;;;;;;;2.27;0.97;;;11.20;99.90;;;;;;6213448;23;20193;-90
2021/10/06 06:28:29;;;;;;;0.43;0.43;;;11.20;99.90;;;;;;6237972;22;20184;-87
2021/10/06 06:30:55;;;;;;;1.47;1.13;;;11.20;99.90;;;;;;6212576;23;20162;-87
2021/10/06 06:33:21;;;;;;;1.73;0.60;;;11.30;99.90;;;;;;6186837;23;20201;-87
2021/10/06 06:35:47;;;;;;;0.97;0.97;;;11.30;99.90;;;;;;6187189;23;20204;-85
2021/10/06 06:38:12;;;;;;;0.70;0.70;;;11.30;99.90;;;;;;6186538;23;20205;-87
2021/10/06 06:40:48;;;;;;;0.50;0.50;;;11.20;99.90;;;;;;6213522;23;20217;-90
2021/10/06 06:43:14;;;;;;;1.07;1.00;;;11.30;99.90;;;;;;6238679;22;20191;-90
2021/10/06 06:45:39;;;;;;;0.60;0.57;;;11.30;99.90;;;;;;6238567;23;20683;-90
2021/10/06 06:48:06;;;;;;;0.50;0.50;;;11.30;99.90;;;;;;6213523;23;20207;-89
2021/10/06 06:50:33;;;;;;;0.80;0.40;;;11.20;99.90;;;;;;6238418;22;20197;-90
2021/10/06 06:52:58;;;;;;;0.73;0.50;;;11.20;99.90;;;;;;6238398;22;20191;-91
2021/10/06 06:55:25;;;;;;;1.10;1.00;;;11.10;99.90;;;;;;6188005;22;20244;-92
2021/10/06 06:57:51;;;;;;;0.90;0.90;;;11.10;99.90;;;;;;6215139;23;20591;-90
2021/10/06 07:00:16;;;;;;;2.83;1.20;;;11.20;99.90;;;;;;6213100;23;20208;-91
2021/10/06 07:02:42;;;;;;;1.87;1.00;;;11.20;99.90;;;;;;6188116;23;20201;-89
2021/10/06 07:05:08;;;;;;;2.57;0.97;;;11.30;99.90;;;;;;6188490;23;20189;-90
2021/10/06 07:07:34;;;;;;;0.70;0.67;;;11.40;99.90;;;;;;6212669;22;20205;-91
2021/10/06 07:09:59;;;;;;;1.20;0.90;;;11.40;99.90;;;;;;6189293;23;20188;-90
2021/10/06 07:12:25;;;;;;;1.23;0.90;;;11.40;99.90;;;;;;6187961;23;20197;-89
2021/10/06 07:14:52;;;;;;;4.20;1.57;;;11.50;99.90;;;;;;6187864;23;20641;-89
2021/10/06 07:17:18;;;;;;;1.97;1.20;;;11.60;99.90;;;;;;6212696;23;20528;-89
2021/10/06 07:19:46;;;;;;;1.73;1.00;;;11.80;99.90;;;;;;6188090;23;20208;-89
2021/10/06 07:22:12;;;;;;;0.80;0.80;;;12.40;99.90;;;;;;6238470;23;20157;-91
2021/10/06 07:24:39;;;;;;;4.10;2.17;;;13.20;99.90;;;;;;6238871;23;20627;-87
2021/10/06 07:27:05;;;;;;;1.10;1.00;;;13.90;99.90;;;;;;6212785;23;20537;-88
2021/10/06 07:29:31;;;;;;;0.90;0.90;;;14.30;99.90;;;;;;6236858;22;20602;-88
2021/10/06 07:31:57;;;;;;;2.30;0.80;;;14.50;99.90;;;;;;6237503;22;20197;-89
2021/10/06 07:34:23;;;;;;;2.77;1.10;;;14.50;99.90;;;;;;6212548;22;21030;-89
2021/10/06 07:36:49;;;;;;;4.07;1.17;;;15.00;99.90;;;;;;6213743;23;20161;-90
2021/10/06 07:39:15;;;;;;;1.90;1.00;;;15.50;99.90;;;;;;6212206;23;20650;-89
2021/10/06 07:41:41;;;;;;;1.47;0.70;;;15.20;99.90;;;;;;6212595;23;20201;-88
2021/10/06 07:44:07;;;;;;;2.53;1.33;;;15.50;99.90;;;;;;6212848;23;20200;-88
2021/10/06 07:46:32;;;;;;;1.10;1.00;;;15.50;99.90;;;;;;6212352;22;20203;-91
2021/10/06 07:48:58;;;;;;;1.27;0.77;;;14.80;99.90;;;;;;6212757;23;20251;-88
2021/10/06 07:51:24;;;;;;;1.63;1.13;;;14.30;99.90;;;;;;6186875;23;20203;-89
2021/10/06 07:53:50;;;;;;;2.27;1.10;;;14.30;99.90;;;;;;6212036;23;20196;-89
2021/10/06 07:56:16;;;;;;;0.80;0.80;;;15.10;99.90;;;;;;6186797;23;20275;-88
2021/10/06 07:58:42;;;;;;;1.00;1.00;;;15.50;99.90;;;;;;6187537;23;20194;-89
2021/10/06 08:01:09;;;;;;;1.47;0.73;;;16.00;99.90;;;;;;6188244;23;20702;-89
2021/10/06 08:03:35;;;;;;;1.83;0.90;;;16.40;99.90;;;;;;6237195;22;21074;-88
2021/10/06 08:06:01;;;;;;;2.97;1.00;;;15.90;99.90;;;;;;6237444;22;21140;-89
2021/10/06 08:08:27;;;;;;;2.57;1.00;;;15.10;99.90;;;;;;6237061;22;20519;-88
2021/10/06 08:10:58;;;;;;;1.67;0.70;;;14.30;99.90;;;;;;6237236;22;20646;-89
2021/10/06 08:13:24;;;;;;;0.80;0.80;;;14.00;99.90;;;;;;6236857;22;20164;-89
2021/10/06 08:15:51;;;;;;;1.93;1.53;;;13.80;99.90;;;;;;6213252;23;20257;-90
2021/10/06 08:18:19;;;;;;;0.83;0.83;;;13.60;99.90;;;;;;6237692;22;20280;-89
2021/10/06 08:20:46;;;;;;;0.40;0.40;;;13.60;99.90;;;;;;6237607;22;20205;-88
2021/10/06 08:23:12;;;;;;;1.53;0.83;;;13.70;99.90;;;;;;6187143;23;20204;-89
2021/10/06 08:25:38;;;;;;;0.50;0.50;;;13.90;99.90;;;;;;6187974;23;20531;-88
2021/10/06 08:28:04;;;;;;;3.00;0.90;;;14.30;99.90;;;;;;6213615;23;20188;-89
2021/10/06 08:30:30;;;;;;;1.90;0.77;;;14.40;99.90;;;;;;6212793;23;20197;-89
2021/10/06 08:32:55;;;;;;;1.50;1.40;;;14.40;99.90;;;;;;6187808;23;20204;-88
2021/10/06 08:35:21;;;;;;;0.57;0.57;;;14.40;99.90;;;;;;6187386;23;20186;-88
2021/10/06 08:37:47;;;;;;;0.93;0.93;;;14.30;99.90;;;;;;6187149;23;20201;-88
2021/10/06 08:40:13;;;;;;;1.90;0.73;;;14.30;99.90;;;;;;6187454;22;20153;-87
2021/10/06 08:42:41;;;;;;;1.73;1.00;;;14.20;99.90;;;;;;6212266;23;20160;-88
2021/10/06 08:45:07;;;;;;;0.80;0.77;;;14.20;99.90;;;;;;6237649;22;20201;-88
2021/10/06 08:47:39;;;;;;;1.10;0.97;;;14.10;99.90;;;;;;6237479;22;20197;-88
2021/10/06 08:50:08;;;;;;;0.70;0.70;;;14.10;99.90;;;;;;6237980;22;20338;-88
2021/10/06 08:52:34;;;;;;;1.13;0.93;;;14.40;99.90;;;;;;6237292;22;20189;-89
2021/10/06 08:55:02;;;;;;;1.10;1.00;;;14.70;99.90;;;;;;6237803;23;20154;-88
2021/10/06 08:57:28;;;;;;;1.27;1.17;;;14.40;99.90;;;;;;6211974;23;20219;-89
2021/10/06 08:59:54;;;;;;;0.80;0.80;;;14.30;99.90;;;;;;6187043;23;20193;-88
2021/10/06 09:02:20;;;;;;;0.27;0.27;;;14.30;99.90;;;;;;6187038;23;20281;-90
2021/10/06 09:04:48;;;;;;;1.00;0.93;;;14.50;99.90;;;;;;6211791;23;20197;-88
2021/10/06 09:07:14;;;;;;;0.80;0.60;;;14.50;99.90;;;;;;6211475;22;20153;-88
2021/10/06 09:09:40;;;;;;;2.00;0.60;;;14.40;99.90;;;;;;6212493;23;20657;-88
2021/10/06 09:12:27;;;;;;;1.20;0.70;;;14.30;99.90;;;;;;6211472;23;20197;-88
2021/10/06 09:14:56;;;;;;;2.20;0.70;;;14.50;99.90;;;;;;6237256;22;20663;-88
2021/10/06 09:17:21;;;;;;;0.73;0.73;;;14.50;99.90;;;;;;6212182;22;20193;-88
2021/10/06 09:19:57;;;;;;;0.80;0.60;;;14.50;99.90;;;;;;6187514;23;20223;-88
2021/10/06 09:22:30;;;;;;;1.00;0.60;;;14.20;99.90;;;;;;6237240;22;20704;-87
2021/10/06 09:25:05;;;;;;;0.93;0.50;;;14.10;99.90;;;;;;6214100;23;20670;-88
2021/10/06 09:27:34;;;;;;;0.80;0.67;;;14.30;99.90;;;;;;6236669;22;20193;-88
2021/10/06 09:30:07;;;;;;;1.37;0.60;;;14.30;99.90;;;;;;6237039;22;20189;-87
2021/10/06 09:32:44;;;;;;;1.47;1.37;;;14.40;99.90;;;;;;6237149;22;20189;-87
2021/10/06 09:35:21;;;;;;;1.33;0.60;;;14.00;99.90;;;;;;6237094;22;20197;-88
2021/10/06 09:37:49;;;;;;;3.87;0.80;;;13.80;99.90;;;;;;6211781;23;20219;-87
2021/10/06 09:40:18;;;;;;;0.50;0.50;;;13.70;99.90;;;;;;6237178;22;20165;-89
2021/10/06 09:42:47;;;;;;;1.10;0.63;;;14.10;99.90;;;;;;6238001;23;20507;-88
2021/10/06 09:45:31;;;;;;;0.70;0.70;;;14.60;99.90;;;;;;6237485;22;20201;-88
2021/10/06 09:48:01;;;;;;;1.73;0.70;;;14.60;99.90;;;;;;6236959;22;20201;-88
2021/10/06 09:50:26;;;;;;;0.97;0.77;;;14.40;99.90;;;;;;6236918;22;20201;-87
2021/10/06 09:52:53;;;;;;;0.70;0.70;;;14.60;99.90;;;;;;6213629;23;20276;-89
2021/10/06 09:55:20;;;;;;;0.50;0.50;;;14.50;99.90;;;;;;6189164;22;20157;-88
2021/10/06 09:57:45;;;;;;;0.83;0.83;;;14.30;99.90;;;;;;6214329;23;20241;-88
2021/10/06 10:00:16;;;;;;;1.30;0.73;;;14.20;99.90;;;;;;6188674;23;20205;-88
2021/10/06 10:02:42;;;;;;;0.90;0.70;;;14.20;99.90;;;;;;6189611;23;20237;-88
2021/10/06 10:05:09;;;;;;;0.50;0.50;;;15.10;99.90;;;;;;6238917;22;20204;-87
2021/10/06 10:07:36;;;;;;;2.60;0.70;;;16.10;99.90;;;;;;6238405;22;20227;-87
2021/10/06 10:10:04;;;;;;;0.90;0.80;;;17.10;99.90;;;;;;6239286;23;20166;-87
2021/10/06 10:12:29;;;;;;;0.80;0.80;;;17.00;99.90;;;;;;6213058;23;20204;-88
2021/10/06 10:14:55;;;;;;;0.50;0.50;;;16.70;99.90;;;;;;6238408;22;20193;-90
2021/10/06 10:17:22;;;;;;;1.13;1.10;;;16.40;99.90;;;;;;6240368;22;20213;-88
2021/10/06 10:19:57;;;;;;;0.50;0.50;;;16.30;99.90;;;;;;6238684;22;20205;-88
2021/10/06 10:22:25;;;;;;;2.30;0.93;;;16.70;99.90;;;;;;6238328;22;20163;-89
2021/10/06 10:24:52;;;;;;;1.33;0.80;;;16.80;99.90;;;;;;6214267;23;20594;-88
2021/10/06 10:27:23;;;;;;;0.60;0.60;;;17.50;99.90;;;;;;6213080;22;20208;-88
2021/10/06 10:30:07;;;;;;;0.87;0.60;;;18.50;99.90;;;;;;6237950;22;20300;-88
2021/10/06 10:32:44;;;;;;;2.33;1.07;;;18.10;99.90;;;;;;6212547;23;20197;-88
2021/10/06 10:35:15;;;;;;;1.90;0.60;;;17.80;99.90;;;;;;6238183;22;20647;-86
2021/10/06 10:37:53;;;;;;;0.60;0.43;;;17.70;99.90;;;;;;6239211;22;20216;-85
2021/10/06 10:40:34;;;;;;;1.33;0.87;;;17.70;99.90;;;;;;6238030;22;20157;-87
2021/10/06 10:43:07;;;;;;;0.73;0.60;;;16.60;99.90;;;;;;6239161;23;20165;-84
2021/10/06 10:45:52;;;;;;;0.70;0.70;;;16.10;99.90;;;;;;6237759;22;20205;-87
2021/10/06 10:48:26;;;;;;;1.17;0.80;;;15.50;99.90;;;;;;6238133;22;20232;-87
2021/10/06 10:50:52;;;;;;;1.43;0.90;;;15.10;99.90;;;;;;6237837;22;20203;-87
2021/10/06 10:53:50;;;;;;;1.30;0.70;;;15.20;99.90;;;;;;6238153;22;20193;-87
2021/10/06 10:56:50;;;;;;;1.03;0.80;;;15.30;99.90;;;;;;6238826;22;20204;-87
2021/10/06 10:59:20;;;;;;;0.80;0.67;;;15.10;99.90;;;;;;6227084;22;20577;-87
2021/10/06 11:01:57;;;;;;;1.40;0.63;;;15.00;99.90;;;;;;6238890;22;20189;-86
2021/10/06 11:04:28;;;;;;;0.60;0.50;;;14.80;99.90;;;;;;6237484;22;20145;-87
2021/10/06 11:07:12;;;;;;;1.27;1.17;;;14.80;99.90;;;;;;6237895;23;20944;-87
2021/10/06 11:09:40;;;;;;;1.03;0.50;;;15.00;99.90;;;;;;6237206;23;20582;-86
2021/10/06 11:12:05;;;;;;;0.93;0.93;;;15.10;99.90;;;;;;6237737;22;20657;-87
2021/10/06 11:14:37;;;;;;;0.40;0.40;;;15.30;99.90;;;;;;6237225;22;20201;-87
2021/10/06 11:17:09;;;;;;;2.10;0.73;;;15.50;99.90;;;;;;6237883;22;20919;-87
2021/10/06 11:19:39;;;;;;;0.47;0.47;;;15.50;99.90;;;;;;6239255;22;20280;-88
2021/10/06 11:22:23;;;;;;;1.27;0.57;;;15.60;99.90;;;;;;6237604;23;20228;-88
2021/10/06 11:24:58;;;;;;;0.30;0.30;;;15.90;99.90;;;;;;6236973;23;20511;-86
2021/10/06 11:27:25;;;;;;;0.60;0.60;;;15.80;99.90;;;;;;6236724;22;20506;-87
2021/10/06 11:29:54;;;;;;;0.40;0.40;;;16.00;99.90;;;;;;6211371;23;20197;-86
2021/10/06 11:32:20;;;;;;;2.93;0.50;;;15.90;99.90;;;;;;6212615;23;20197;-86
2021/10/06 11:34:51;;;;;;;0.53;0.53;;;15.90;99.90;;;;;;6211556;23;20524;-86
2021/10/06 11:37:35;;;;;;;0.80;0.80;;;15.90;99.90;;;;;;6213098;22;20524;-86
2021/10/06 11:40:01;;;;;;;1.37;0.67;;;15.80;99.90;;;;;;6216520;23;20181;-86
2021/10/06 11:42:31;;;;;;;1.70;0.80;;;15.90;99.90;;;;;;6211295;23;20204;-86
2021/10/06 11:44:57;;;;;;;1.47;0.47;;;15.70;99.90;;;;;;6186428;23;20194;-86
2021/10/06 11:47:23;;;;;;;1.27;0.50;;;15.70;99.90;;;;;;6211691;23;20200;-86
2021/10/06 11:49:49;;;;;;;0.60;0.40;;;15.90;99.90;;;;;;6211856;23;20580;-86
2021/10/06 11:52:17;;;;;;;0.80;0.57;;;16.10;99.90;;;;;;6211154;22;20176;-86
2021/10/06 11:54:44;;;;;;;1.30;0.50;;;16.30;99.90;;;;;;6212368;23;20165;-86
2021/10/06 11:57:17;;;;;;;0.60;0.60;;;16.60;99.90;;;;;;6211280;23;20220;-86
2021/10/06 11:59:46;;;;;;;0.50;0.50;;;17.20;99.90;;;;;;6212864;23;20208;-86
2021/10/06 12:02:14;;;;;;;1.23;0.60;;;18.00;99.90;;;;;;6211623;23;20199;-84
2021/10/06 12:04:48;;;;;;;0.53;0.53;;;18.30;99.90;;;;;;6211665;23;20270;-83
2021/10/06 12:07:16;;;;;;;0.40;0.40;;;18.40;99.90;;;;;;6236302;22;20182;-84
2021/10/06 12:09:48;;;;;;;0.77;0.77;;;18.80;99.90;;;;;;6237177;23;20208;-85
2021/10/06 12:12:25;;;;;;;0.60;0.40;;;18.50;99.90;;;;;;6212349;23;20710;-84
2021/10/06 12:14:53;;;;;;;0.60;0.60;;;17.80;99.90;;;;;;6235796;22;20208;-86
2021/10/06 12:17:27;;;;;;;0.23;0.23;;;18.10;99.90;;;;;;6236495;22;20193;-84
2021/10/06 12:20:00;;;;;;;2.70;0.80;;;18.10;99.90;;;;;;6236351;22;20200;-86
2021/10/06 12:22:47;;;;;;;1.23;1.00;;;18.60;99.90;;;;;;6238119;22;20223;-85
2021/10/06 12:25:21;;;;;;;1.60;0.90;;;18.70;99.90;;;;;;6236322;22;20145;-86
2021/10/06 12:27:50;;;;;;;1.03;0.80;;;18.80;99.90;;;;;;6236314;23;20538;-87
2021/10/06 12:30:20;;;;;;;0.90;0.80;;;18.00;99.90;;;;;;6236162;22;20225;-85
2021/10/06 12:32:49;;;;;;;1.87;0.90;;;17.50;99.90;;;;;;6235991;22;20566;-88
2021/10/06 12:35:16;;;;;;;1.07;1.07;;;17.50;99.90;;;;;;6237017;22;20665;-89
2021/10/06 12:37:47;;;;;;;1.30;1.00;;;17.90;99.90;;;;;;6236085;22;20209;-87
2021/10/06 12:40:41;;;;;;;1.03;0.80;;;17.50;99.90;;;;;;6238032;22;20240;-87
2021/10/06 12:43:17;;;;;;;0.67;0.67;;;16.90;99.90;;;;;;6237155;23;20173;-88
2021/10/06 12:46:11;;;;;;;0.60;0.60;;;16.80;99.90;;;;;;6236362;23;20272;-87
2021/10/06 12:48:49;;;;;;;1.33;1.00;;;17.00;99.90;;;;;;6236343;22;20205;-89
2021/10/06 12:51:29;;;;;;;0.50;0.50;;;17.10;99.90;;;;;;6237124;22;20192;-89